createdAt,value
2023-11-28T00:02:19.489Z,1.83
2023-11-28T00:04:51.376Z,1.82
2023-11-28T00:07:22.350Z,1.82
2023-11-28T00:09:53.331Z,1.82
2023-11-28T00:12:25.612Z,1.81
2023-11-28T00:14:56.479Z,1.77
2023-11-28T00:17:27.395Z,1.74
2023-11-28T00:19:58.309Z,1.72
2023-11-28T00:22:29.176Z,1.67
2023-11-28T00:25:00.060Z,1.64
2023-11-28T00:27:30.875Z,1.59
2023-11-28T00:30:01.725Z,1.56
2023-11-28T00:32:32.592Z,1.59
2023-11-28T00:35:03.781Z,1.66
2023-11-28T00:37:34.750Z,1.75
2023-11-28T00:40:08.584Z,1.85
2023-11-28T00:42:39.398Z,1.96
2023-11-28T00:45:13.752Z,2.05
2023-11-28T00:47:45.271Z,2.11
2023-11-28T00:50:19.160Z,2.15
2023-11-28T00:52:50.740Z,2.18
2023-11-28T00:55:22.923Z,2.14
2023-11-28T00:57:54.621Z,2.09
2023-11-28T01:00:25.534Z,2.05
2023-11-28T01:02:57.036Z,1.99
2023-11-28T01:05:28.056Z,1.94
2023-11-28T01:07:59.091Z,1.94
2023-11-28T01:10:30.003Z,1.94
2023-11-28T01:13:00.794Z,1.94
2023-11-28T01:15:31.696Z,1.95
2023-11-28T01:18:02.524Z,1.91
2023-11-28T01:20:33.336Z,1.89
2023-11-28T01:23:04.170Z,1.89
2023-11-28T01:25:35.104Z,1.89
2023-11-28T01:28:06.310Z,1.92
2023-11-28T01:30:37.174Z,1.98
2023-11-28T01:33:08.161Z,2.05
2023-11-28T01:35:40.124Z,2.14
2023-11-28T01:38:11.305Z,2.23
2023-11-28T01:40:42.263Z,2.28
2023-11-28T01:43:24.249Z,2.30
2023-11-28T01:45:55.697Z,2.33
2023-11-28T01:48:26.688Z,2.34
2023-11-28T01:50:57.833Z,2.35
2023-11-28T01:53:30.286Z,2.35
2023-11-28T01:56:02.009Z,2.36
2023-11-28T01:58:33.108Z,2.36
2023-11-28T02:01:04.555Z,2.36
2023-11-28T02:03:36.248Z,2.35
2023-11-28T02:06:07.581Z,2.32
2023-11-28T02:08:39.261Z,2.31
2023-11-28T02:11:10.389Z,2.31
2023-11-28T02:13:41.285Z,2.30
2023-11-28T02:16:17.178Z,2.29
2023-11-28T02:18:48.750Z,2.27
2023-11-28T02:21:19.639Z,2.26
2023-11-28T02:23:50.640Z,2.27
2023-11-28T02:26:27.552Z,2.29
2023-11-28T02:28:57.392Z,2.32
2023-11-28T02:31:28.409Z,2.37
2023-11-28T02:33:59.526Z,2.39
2023-11-28T02:36:31.048Z,2.43
2023-11-28T02:39:01.910Z,2.48
2023-11-28T02:41:32.759Z,2.51
2023-11-28T02:44:03.734Z,2.55
2023-11-28T02:46:34.710Z,2.59
2023-11-28T02:49:05.678Z,2.59
2023-11-28T02:51:36.547Z,2.60
2023-11-28T02:54:07.649Z,2.61
2023-11-28T02:56:38.497Z,2.60
2023-11-28T02:59:09.306Z,2.58
2023-11-28T03:01:40.201Z,2.58
2023-11-28T03:04:11.071Z,2.56
2023-11-28T03:06:42.910Z,2.57
2023-11-28T03:09:13.719Z,2.56
2023-11-28T03:11:44.860Z,2.53
2023-11-28T03:14:15.709Z,2.53
2023-11-28T03:16:46.597Z,2.51
2023-11-28T03:19:17.861Z,2.49
2023-11-28T03:21:48.742Z,2.47
2023-11-28T03:24:19.534Z,2.46
2023-11-28T03:26:50.350Z,2.48
2023-11-28T03:29:21.241Z,2.54
2023-11-28T03:31:52.146Z,2.61
2023-11-28T03:34:22.986Z,2.66
2023-11-28T03:36:54.565Z,2.70
2023-11-28T03:39:25.936Z,2.75
2023-11-28T03:41:57.049Z,2.79
2023-11-28T03:44:27.850Z,2.81
2023-11-28T03:46:58.696Z,3.03
2023-11-28T03:49:29.593Z,3.19
2023-11-28T03:52:00.475Z,3.17
2023-11-28T03:54:31.255Z,3.11
2023-11-28T03:57:02.059Z,3.06
2023-11-28T03:59:32.850Z,3.00
2023-11-28T04:02:03.802Z,2.95
2023-11-28T04:04:34.829Z,2.91
2023-11-28T04:07:06.751Z,2.87
2023-11-28T04:09:37.976Z,2.83
2023-11-28T04:12:09.525Z,2.85
2023-11-28T04:14:40.486Z,2.89
2023-11-28T04:17:11.287Z,2.93
2023-11-28T04:19:42.193Z,2.97
2023-11-28T04:22:13.064Z,3.01
2023-11-28T04:24:43.956Z,3.07
2023-11-28T04:27:14.890Z,3.10
2023-11-28T04:29:46.161Z,3.13
2023-11-28T04:32:17.018Z,3.13
2023-11-28T04:34:47.964Z,3.14
2023-11-28T04:37:18.911Z,3.12
2023-11-28T04:39:51.662Z,3.09
2023-11-28T04:42:22.590Z,3.05
2023-11-28T04:44:53.531Z,3.03
2023-11-28T04:47:24.457Z,3.00
2023-11-28T04:49:55.790Z,2.98
2023-11-28T04:52:26.635Z,3.00
2023-11-28T04:54:57.664Z,3.04
2023-11-28T04:57:28.479Z,3.11
2023-11-28T04:59:59.323Z,3.16
2023-11-28T05:02:30.210Z,3.19
2023-11-28T05:05:01.207Z,3.19
2023-11-28T05:07:35.044Z,3.20
2023-11-28T05:10:08.407Z,3.21
2023-11-28T05:12:39.228Z,3.22
2023-11-28T05:15:11.268Z,3.21
2023-11-28T05:17:42.216Z,3.21
2023-11-28T05:20:14.663Z,3.19
2023-11-28T05:22:45.573Z,3.19
2023-11-28T05:25:16.956Z,3.18
2023-11-28T05:27:49.621Z,3.21
2023-11-28T05:30:20.748Z,3.27
2023-11-28T05:32:51.706Z,3.32
2023-11-28T05:35:22.912Z,3.36
2023-11-28T05:37:53.766Z,3.39
2023-11-28T05:40:24.676Z,3.42
2023-11-28T05:42:55.737Z,3.44
2023-11-28T05:45:27.152Z,3.45
2023-11-28T05:47:58.103Z,3.43
2023-11-28T05:50:29.151Z,3.41
2023-11-28T05:53:01.470Z,3.38
2023-11-28T05:55:32.399Z,3.31
2023-11-28T05:58:03.253Z,3.27
2023-11-28T06:00:35.781Z,3.45
2023-11-28T06:03:06.961Z,3.72
2023-11-28T06:05:41.333Z,3.78
2023-11-28T06:08:13.615Z,3.79
2023-11-28T06:10:45.519Z,3.81
2023-11-28T06:13:17.451Z,3.84
2023-11-28T06:15:48.313Z,3.81
2023-11-28T06:18:19.228Z,3.76
2023-11-28T06:20:50.138Z,3.71
2023-11-28T06:23:21.079Z,3.67
2023-11-28T06:25:52.188Z,3.60
2023-11-28T06:28:23.016Z,3.56
2023-11-28T06:30:53.915Z,3.52
2023-11-28T06:33:24.906Z,3.49
2023-11-28T06:35:55.888Z,3.45
2023-11-28T06:38:27.869Z,3.43
2023-11-28T06:40:59.234Z,3.44
2023-11-28T06:43:30.061Z,3.49
2023-11-28T06:46:01.631Z,3.53
2023-11-28T06:48:32.818Z,3.57
2023-11-28T06:51:03.771Z,3.59
2023-11-28T06:53:34.591Z,3.59
2023-11-28T06:56:07.162Z,3.58
2023-11-28T06:58:38.057Z,3.59
2023-11-28T07:01:09.485Z,3.57
2023-11-28T07:03:40.516Z,3.54
2023-11-28T07:06:12.427Z,3.52
2023-11-28T07:08:43.320Z,3.48
2023-11-28T07:11:21.169Z,3.44
2023-11-28T07:13:52.504Z,3.43
2023-11-28T07:16:23.782Z,3.44
2023-11-28T07:18:54.654Z,3.47
2023-11-28T07:21:25.504Z,3.50
2023-11-28T07:23:56.357Z,3.56
2023-11-28T07:26:27.193Z,3.61
2023-11-28T07:28:58.214Z,3.65
2023-11-28T07:31:30.958Z,3.67
2023-11-28T07:34:01.967Z,3.67
2023-11-28T07:36:32.902Z,3.63
2023-11-28T07:39:05.364Z,3.61
2023-11-28T07:41:36.239Z,3.59
2023-11-28T07:44:07.933Z,3.54
2023-11-28T07:46:38.883Z,3.48
2023-11-28T07:49:09.773Z,3.50
2023-11-28T07:51:40.668Z,3.54
2023-11-28T07:54:12.255Z,3.61
2023-11-28T07:56:43.098Z,3.69
2023-11-28T07:59:14.050Z,3.75
2023-11-28T08:01:45.020Z,3.80
2023-11-28T08:04:16.127Z,3.83
2023-11-28T08:06:47.066Z,3.86
2023-11-28T08:09:17.979Z,3.87
2023-11-28T08:11:52.251Z,3.84
2023-11-28T08:14:23.279Z,3.85
2023-11-28T08:16:54.282Z,3.84
2023-11-28T08:19:25.292Z,3.83
2023-11-28T08:21:56.405Z,3.84
2023-11-28T08:24:27.297Z,3.88
2023-11-28T08:26:58.205Z,3.93
2023-11-28T08:29:29.151Z,4.00
2023-11-28T08:32:00.401Z,4.07
2023-11-28T08:34:31.459Z,4.22
2023-11-28T08:37:03.148Z,4.61
2023-11-28T08:39:34.077Z,5.04
2023-11-28T08:42:05.248Z,5.19
2023-11-28T08:44:36.405Z,5.24
2023-11-28T08:47:07.674Z,5.27
2023-11-28T08:49:38.680Z,5.23
2023-11-28T08:52:11.706Z,5.19
2023-11-28T08:54:45.068Z,5.17
2023-11-28T08:57:16.919Z,5.15
2023-11-28T08:59:47.954Z,5.10
2023-11-28T09:02:19.006Z,5.04
2023-11-28T09:04:50.011Z,5.00
2023-11-28T09:07:20.953Z,4.95
2023-11-28T09:09:52.120Z,4.92
2023-11-28T09:12:22.934Z,4.89
2023-11-28T09:14:56.515Z,4.89
2023-11-28T09:17:27.972Z,4.92
2023-11-28T09:19:58.937Z,5.00
2023-11-28T09:22:29.759Z,5.06
2023-11-28T09:25:00.867Z,5.13
2023-11-28T09:27:31.674Z,5.18
2023-11-28T09:30:02.569Z,5.22
2023-11-28T09:32:33.614Z,5.24
2023-11-28T09:35:04.873Z,5.26
2023-11-28T09:37:36.985Z,5.27
2023-11-28T09:40:09.606Z,5.26
2023-11-28T09:42:45.584Z,5.27
2023-11-28T09:45:19.430Z,5.28
2023-11-28T09:47:51.569Z,5.30
2023-11-28T09:50:27.120Z,5.31
2023-11-28T09:53:00.286Z,5.36
2023-11-28T09:55:32.923Z,5.44
2023-11-28T09:58:05.313Z,5.53
2023-11-28T10:00:38.023Z,5.61
2023-11-28T10:03:09.253Z,5.67
2023-11-28T10:05:41.095Z,5.74
2023-11-28T10:08:13.701Z,5.80
2023-11-28T10:10:46.250Z,5.86
2023-11-28T10:13:17.194Z,5.89
2023-11-28T10:15:51.506Z,5.91
2023-11-28T10:18:24.875Z,5.93
2023-11-28T10:20:55.997Z,5.93
2023-11-28T10:23:27.658Z,5.95
2023-11-28T10:25:58.659Z,5.94
2023-11-28T10:28:29.546Z,5.93
2023-11-28T10:31:00.706Z,5.91
2023-11-28T10:33:31.573Z,5.95
2023-11-28T10:36:02.464Z,6.06
2023-11-28T10:38:36.118Z,6.39
2023-11-28T10:41:07.635Z,6.58
2023-11-28T10:43:38.637Z,6.63
2023-11-28T10:46:11.337Z,6.66
2023-11-28T10:48:42.329Z,6.69
2023-11-28T10:51:14.721Z,6.91
2023-11-28T10:53:48.481Z,7.10
2023-11-28T10:56:22.740Z,7.17
2023-11-28T10:58:54.105Z,7.19
2023-11-28T11:01:25.495Z,7.21
2023-11-28T11:03:56.738Z,7.35
2023-11-28T11:06:27.744Z,7.38
2023-11-28T11:09:00.413Z,7.36
2023-11-28T11:11:31.509Z,7.33
2023-11-28T11:14:12.515Z,7.29
2023-11-28T11:16:50.734Z,7.25
2023-11-28T11:19:22.988Z,7.23
2023-11-28T11:22:05.574Z,7.20
2023-11-28T11:24:37.375Z,7.14
2023-11-28T11:27:10.128Z,7.14
2023-11-28T11:29:43.221Z,7.15
2023-11-28T11:32:20.064Z,7.13
2023-11-28T11:34:52.632Z,7.20
2023-11-28T11:37:31.664Z,7.40
2023-11-28T11:40:03.469Z,7.51
2023-11-28T11:42:36.058Z,7.60
2023-11-28T11:45:10.693Z,7.75
2023-11-28T11:47:41.642Z,7.92
2023-11-28T11:50:17.357Z,8.07
2023-11-28T11:52:50.711Z,8.13
2023-11-28T11:55:21.666Z,8.17
2023-11-28T11:57:52.517Z,8.20
2023-11-28T12:00:24.474Z,8.24
2023-11-28T12:02:57.901Z,8.23
2023-11-28T12:05:28.940Z,8.20
2023-11-28T12:08:01.704Z,8.13
2023-11-28T12:10:32.575Z,8.11
2023-11-28T12:13:03.501Z,8.07
2023-11-28T12:15:34.770Z,8.00
2023-11-28T12:18:13.958Z,7.92
2023-11-28T12:20:45.334Z,7.85
2023-11-28T12:23:16.687Z,7.81
2023-11-28T12:25:47.594Z,7.78
2023-11-28T12:28:18.797Z,7.72
2023-11-28T12:30:50.380Z,7.66
2023-11-28T12:33:22.248Z,7.60
2023-11-28T12:35:53.360Z,7.52
2023-11-28T12:38:24.404Z,7.49
2023-11-28T12:41:03.071Z,7.45
2023-11-28T12:43:41.244Z,7.42
2023-11-28T12:46:12.223Z,7.37
2023-11-28T12:48:45.102Z,7.36
2023-11-28T12:51:16.409Z,7.38
2023-11-28T12:53:49.624Z,7.46
2023-11-28T12:56:20.873Z,7.64
2023-11-28T12:58:52.232Z,7.79
2023-11-28T13:01:23.546Z,7.98
2023-11-28T13:03:54.592Z,8.26
2023-11-28T13:06:26.167Z,8.46
2023-11-28T13:08:57.134Z,8.60
2023-11-28T13:11:28.048Z,8.67
2023-11-28T13:13:59.100Z,8.75
2023-11-28T13:16:30.922Z,8.83
2023-11-28T13:19:02.264Z,8.86
2023-11-28T13:21:36.904Z,8.88
2023-11-28T13:24:10.123Z,8.98
2023-11-28T13:26:41.598Z,9.03
2023-11-28T13:29:13.185Z,9.07
2023-11-28T13:31:45.942Z,9.15
2023-11-28T13:34:16.988Z,9.22
2023-11-28T13:36:48.492Z,9.32
2023-11-28T13:39:19.405Z,9.42
2023-11-28T13:41:50.277Z,9.50
2023-11-28T13:44:23.272Z,9.58
2023-11-28T13:46:54.360Z,9.63
2023-11-28T13:49:25.281Z,9.63
2023-11-28T13:51:57.004Z,9.63
2023-11-28T13:54:27.925Z,9.64
2023-11-28T13:56:59.079Z,9.64
2023-11-28T13:59:32.541Z,9.58
2023-11-28T14:02:03.715Z,9.48
2023-11-28T14:04:34.674Z,9.37
2023-11-28T14:07:05.561Z,9.21
2023-11-28T14:09:36.424Z,9.05
2023-11-28T14:12:07.846Z,8.88
2023-11-28T14:14:50.193Z,8.72
2023-11-28T14:17:25.451Z,8.55
2023-11-28T14:19:56.590Z,8.41
2023-11-28T14:22:27.684Z,8.23
2023-11-28T14:24:58.551Z,8.09
2023-11-28T14:27:29.638Z,7.97
2023-11-28T14:30:00.491Z,7.85
2023-11-28T14:32:31.607Z,7.78
2023-11-28T14:35:03.733Z,7.73
2023-11-28T14:37:34.649Z,7.67
2023-11-28T14:40:09.669Z,7.61
2023-11-28T14:42:41.505Z,7.51
2023-11-28T14:45:13.337Z,7.40
2023-11-28T14:47:45.581Z,7.22
2023-11-28T14:50:16.710Z,7.07
2023-11-28T14:52:47.587Z,6.99
2023-11-28T14:55:18.573Z,6.89
2023-11-28T14:57:49.499Z,6.79
2023-11-28T15:00:21.955Z,6.68
2023-11-28T15:02:54.689Z,6.55
2023-11-28T15:05:25.645Z,6.41
2023-11-28T15:07:56.928Z,6.32
2023-11-28T15:10:27.903Z,6.22
2023-11-28T15:12:59.216Z,6.12
2023-11-28T15:15:30.085Z,6.09
2023-11-28T15:18:01.201Z,6.08
2023-11-28T15:20:32.118Z,6.09
2023-11-28T15:23:03.322Z,6.13
2023-11-28T15:25:34.907Z,6.09
2023-11-28T15:28:06.284Z,6.02
2023-11-28T15:30:37.564Z,5.96
2023-11-28T15:33:08.670Z,5.90
2023-11-28T15:35:39.922Z,5.78
2023-11-28T15:38:10.847Z,5.69
2023-11-28T15:40:41.751Z,5.62
2023-11-28T15:43:12.715Z,5.50
2023-11-28T15:45:43.798Z,5.39
2023-11-28T15:48:14.763Z,5.28
2023-11-28T15:50:45.827Z,5.18
2023-11-28T15:53:16.823Z,5.04
2023-11-28T15:55:47.813Z,4.96
2023-11-28T15:58:18.716Z,4.92
2023-11-28T16:00:50.213Z,4.93
2023-11-28T16:03:21.173Z,4.95
2023-11-28T16:05:52.260Z,4.98
2023-11-28T16:08:23.110Z,4.98
2023-11-28T16:10:54.848Z,4.99
2023-11-28T16:13:26.160Z,4.98
2023-11-28T16:15:58.359Z,4.95
2023-11-28T16:18:29.298Z,4.91
2023-11-28T16:21:00.272Z,4.86
2023-11-28T16:23:31.253Z,4.80
2023-11-28T16:26:02.354Z,4.71
2023-11-28T16:28:34.917Z,4.60
2023-11-28T16:31:05.780Z,4.51
2023-11-28T16:33:39.633Z,4.42
2023-11-28T16:36:13.916Z,4.37
2023-11-28T16:38:44.790Z,4.40
2023-11-28T16:41:18.356Z,4.46
2023-11-28T16:43:49.264Z,4.53
2023-11-28T16:46:20.291Z,4.60
2023-11-28T16:48:53.687Z,4.64
2023-11-28T16:51:25.153Z,4.66
2023-11-28T16:53:56.291Z,4.69
2023-11-28T16:56:27.444Z,4.74
2023-11-28T16:58:58.368Z,4.79
2023-11-28T17:01:29.277Z,4.83
2023-11-28T17:04:00.255Z,4.86
2023-11-28T17:06:31.083Z,4.89
2023-11-28T17:09:02.505Z,4.91
2023-11-28T17:11:33.945Z,4.93
2023-11-28T17:14:04.854Z,4.93
2023-11-28T17:16:40.192Z,4.93
2023-11-28T17:19:11.213Z,4.92
2023-11-28T17:21:42.327Z,4.91
2023-11-28T17:24:13.185Z,4.90
2023-11-28T17:26:46.834Z,4.89
2023-11-28T17:29:18.971Z,4.87
2023-11-28T17:31:51.964Z,4.84
2023-11-28T17:34:23.057Z,4.81
2023-11-28T17:36:54.037Z,4.79
2023-11-28T17:39:26.153Z,4.76
2023-11-28T17:41:58.466Z,4.74
2023-11-28T17:44:30.643Z,4.72
2023-11-28T17:47:01.618Z,4.70
2023-11-28T17:49:32.618Z,4.66
2023-11-28T17:52:03.808Z,4.62
2023-11-28T17:54:34.726Z,4.57
2023-11-28T17:57:05.829Z,4.53
2023-11-28T17:59:36.825Z,4.50
2023-11-28T18:02:08.280Z,4.48
2023-11-28T18:04:42.024Z,4.46
2023-11-28T18:07:15.563Z,4.43
2023-11-28T18:09:51.984Z,4.41
2023-11-28T18:12:22.845Z,4.38
2023-11-28T18:14:53.915Z,4.36
2023-11-28T18:17:25.186Z,4.34
2023-11-28T18:19:58.616Z,4.32
2023-11-28T18:22:29.996Z,4.31
2023-11-28T18:25:00.899Z,4.30
2023-11-28T18:27:32.037Z,4.29
2023-11-28T18:30:06.348Z,4.27
2023-11-28T18:32:37.406Z,4.24
2023-11-28T18:35:09.298Z,4.22
2023-11-28T18:37:40.709Z,4.23
2023-11-28T18:40:14.638Z,4.22
2023-11-28T18:42:45.547Z,4.19
2023-11-28T18:45:18.074Z,4.17
2023-11-28T18:47:49.039Z,4.15
2023-11-28T18:50:20.067Z,4.13
2023-11-28T18:52:50.994Z,4.11
2023-11-28T18:55:23.081Z,4.09
2023-11-28T18:57:54.027Z,4.07
2023-11-28T19:00:25.222Z,4.03
2023-11-28T19:03:00.116Z,3.97
2023-11-28T19:05:33.759Z,3.91
2023-11-28T19:08:05.590Z,3.87
2023-11-28T19:10:37.402Z,3.83
2023-11-28T19:13:08.359Z,3.78
2023-11-28T19:15:39.189Z,3.73
2023-11-28T19:18:10.336Z,3.68
2023-11-28T19:20:41.228Z,3.65
2023-11-28T19:23:12.151Z,3.60
2023-11-28T19:25:46.981Z,3.55
2023-11-28T19:28:18.680Z,3.49
2023-11-28T19:30:50.007Z,3.46
2023-11-28T19:33:21.043Z,3.36
2023-11-28T19:35:51.993Z,3.30
2023-11-28T19:38:22.922Z,3.27
2023-11-28T19:40:53.792Z,3.24
2023-11-28T19:43:24.711Z,3.35
2023-11-28T19:45:55.606Z,3.59
2023-11-28T19:48:26.643Z,3.58
2023-11-28T19:50:57.545Z,3.53
2023-11-28T19:53:28.572Z,3.45
2023-11-28T19:55:59.531Z,3.39
2023-11-28T19:58:33.059Z,3.34
2023-11-28T20:01:05.263Z,3.32
2023-11-28T20:03:38.468Z,3.26
2023-11-28T20:06:09.832Z,3.21
2023-11-28T20:08:42.842Z,3.18
2023-11-28T20:11:13.751Z,3.16
2023-11-28T20:13:45.562Z,3.13
2023-11-28T20:16:16.748Z,3.11
2023-11-28T20:18:47.806Z,3.09
2023-11-28T20:21:19.840Z,3.08
2023-11-28T20:23:54.762Z,3.05
2023-11-28T20:26:25.710Z,3.12
2023-11-28T20:28:56.771Z,3.51
2023-11-28T20:31:27.724Z,3.67
2023-11-28T20:33:58.698Z,3.75
2023-11-28T20:36:31.126Z,3.81
2023-11-28T20:39:06.733Z,3.85
2023-11-28T20:41:37.742Z,3.85
2023-11-28T20:44:09.600Z,3.85
2023-11-28T20:46:40.523Z,3.84
2023-11-28T20:49:11.516Z,3.78
2023-11-28T20:51:42.417Z,3.73
2023-11-28T20:54:13.297Z,3.67
2023-11-28T20:56:45.074Z,3.60
2023-11-28T20:59:16.156Z,3.55
2023-11-28T21:01:47.072Z,3.52
2023-11-28T21:04:17.963Z,3.49
2023-11-28T21:06:49.071Z,3.48
2023-11-28T21:09:20.169Z,3.48
2023-11-28T21:11:51.149Z,3.44
2023-11-28T21:14:24.065Z,3.39
2023-11-28T21:16:55.080Z,3.38
2023-11-28T21:19:25.977Z,3.37
2023-11-28T21:21:58.092Z,3.36
2023-11-28T21:24:29.077Z,3.33
2023-11-28T21:26:59.893Z,3.28
2023-11-28T21:29:30.869Z,3.28
2023-11-28T21:32:02.335Z,3.29
2023-11-28T21:34:34.497Z,3.26
2023-11-28T21:37:05.719Z,3.23
2023-11-28T21:39:36.590Z,3.17
2023-11-28T21:42:07.927Z,3.11
2023-11-28T21:44:39.002Z,3.09
2023-11-28T21:47:11.380Z,3.07
2023-11-28T21:49:43.389Z,3.07
2023-11-28T21:52:14.254Z,3.05
2023-11-28T21:54:45.156Z,3.00
2023-11-28T21:57:16.242Z,2.95
2023-11-28T21:59:47.190Z,2.89
2023-11-28T22:02:19.262Z,2.82
2023-11-28T22:04:51.151Z,2.78
2023-11-28T22:07:22.089Z,2.75
2023-11-28T22:09:55.217Z,2.69
2023-11-28T22:12:26.018Z,2.66
2023-11-28T22:14:56.829Z,2.63
2023-11-28T22:17:27.716Z,2.60
2023-11-28T22:19:59.037Z,2.56
2023-11-28T22:22:29.827Z,2.49
2023-11-28T22:25:01.315Z,2.46
2023-11-28T22:27:32.146Z,2.42
2023-11-28T22:30:03.258Z,2.39
2023-11-28T22:32:34.129Z,2.37
2023-11-28T22:35:05.181Z,2.35
2023-11-28T22:37:36.141Z,2.37
2023-11-28T22:40:08.980Z,2.35
2023-11-28T22:42:39.796Z,2.37
2023-11-28T22:45:12.762Z,2.37
2023-11-28T22:47:43.823Z,2.36
2023-11-28T22:50:14.875Z,2.34
2023-11-28T22:52:45.703Z,2.32
2023-11-28T22:55:16.602Z,2.31
2023-11-28T22:57:47.602Z,2.31
2023-11-28T23:00:19.301Z,2.32
2023-11-28T23:02:50.409Z,2.32
2023-11-28T23:05:21.920Z,2.30
2023-11-28T23:07:52.783Z,2.30
2023-11-28T23:10:23.706Z,2.28
2023-11-28T23:12:54.630Z,2.25
2023-11-28T23:15:26.251Z,2.21
2023-11-28T23:17:57.111Z,2.20
2023-11-28T23:20:27.990Z,2.18
2023-11-28T23:22:59.196Z,2.17
2023-11-28T23:25:30.348Z,2.16
2023-11-28T23:28:01.383Z,2.15
2023-11-28T23:30:32.230Z,2.13
2023-11-28T23:33:03.160Z,2.12
2023-11-28T23:35:34.032Z,2.11
2023-11-28T23:38:04.958Z,2.11
2023-11-28T23:40:35.822Z,2.09
2023-11-28T23:43:06.681Z,2.08
2023-11-28T23:45:37.472Z,2.05
2023-11-28T23:48:09.107Z,2.04
2023-11-28T23:50:39.937Z,2.01
2023-11-28T23:53:10.868Z,2.01
2023-11-28T23:55:42.048Z,1.97
2023-11-28T23:58:13.073Z,1.95
